Northside, Ohio
Current Conditions -  °F | °C
As of 2:35 AM on Thursday 23 Oct 2014 (Local Time) from KI69 Reporting Station
Overcast Overcast  
Wind Chill: 46°   Ceiling: 2900
Heat Index: 46°   Visibility: 10mi
Dew Point: 41°   Wind: 0mph
Humidity: 81%   Direction: NA
Pressure: 30.25"   Gusts: NA
Location:  39.1683°N, 84.5521°W
Report Text: KI69 230635Z AUTO 00000KT 10SM OVC029 08/05 A3025 RMK AO1
Loading
Personal Weather Stations






























Interactive Weather Map
Tropical Storm Tracking
New forecast layout! Learn more

10-Day Weather Forecast

Advertisements
Track Severe Weather on mobile